Glenoma, Washington
Current Conditions -  °F | °C
As of 11:55 PM on Wednesday 22 Oct 2014 (Local Time) from KCLS Reporting Station
Overcast Overcast  
Wind Chill: 55°   Ceiling: 3800
Heat Index: 55°   Visibility: 10mi
Dew Point: 52°   Wind: 10mph
Humidity: 88%   Direction: 160°SSE
Pressure: 29.73"   Gusts: NA
Location:  46.51°N, 122.16°W
Report Text: KCLS 230655Z AUTO 16009KT 10SM BKN038 OVC055 13/11 A2973 RMK AO2
Loading
Personal Weather Stations






























Interactive Weather Map
Tropical Storm Tracking
New forecast layout! Learn more

10-Day Weather Forecast

Advertisements
Track Severe Weather on mobile